Time;durP1;ratioP1;P1;durP2;ratioP2;P2;SDS_P1;SDS_P2;PMS_P1;PMS_P2;Temp;Humidity;BMP_temperature;BMP_pressure;BME280_temperature;BME280_humidity;BME280_pressure;Samples;Min_cycle;Max_cycle;Signal;HPM_P1;HPM_P2
2021/09/06 00:01:04;;;;;;;27.33;20.07;;;;;;;13.18;85.80;101064.81;5026374;28;20647;-76
2021/09/06 00:03:30;;;;;;;27.83;20.87;;;;;;;13.10;84.69;101088.56;5025406;28;20679;-77
2021/09/06 00:05:57;;;;;;;22.87;18.80;;;;;;;13.11;84.53;101097.28;5024727;28;20229;-78
2021/09/06 00:08:25;;;;;;;19.73;17.30;;;;;;;13.14;83.83;101123.44;5026149;28;20215;-75
2021/09/06 00:11:02;;;;;;;22.03;19.30;;;;;;;13.13;83.96;101133.94;5025885;28;20286;-78
2021/09/06 00:13:28;;;;;;;20.87;18.73;;;;;;;13.06;83.22;101138.41;5023905;28;20212;-76
2021/09/06 00:15:54;;;;;;;24.27;18.73;;;;;;;13.04;83.76;101142.81;5026832;28;20209;-76
2021/09/06 00:18:21;;;;;;;24.40;19.57;;;;;;;13.04;83.23;101146.31;5024267;28;20806;-78
2021/09/06 00:20:47;;;;;;;21.00;18.40;;;;;;;13.03;83.29;101146.34;5026110;28;20236;-78
2021/09/06 00:23:14;;;;;;;22.53;18.23;;;;;;;13.07;82.60;101151.50;5027680;28;20262;-76
2021/09/06 00:25:42;;;;;;;21.67;19.23;;;;;;;12.99;83.53;101148.16;5029419;28;20274;-75
2021/09/06 00:28:08;;;;;;;22.77;18.73;;;;;;;12.87;82.89;101157.09;5026474;28;20633;-78
2021/09/06 00:30:35;;;;;;;24.67;19.13;;;;;;;12.75;83.55;101141.59;5024510;28;20243;-77
2021/09/06 00:33:01;;;;;;;22.63;19.73;;;;;;;12.78;83.55;101117.94;5024768;28;20213;-77
2021/09/06 00:35:28;;;;;;;20.03;17.87;;;;;;;12.80;83.47;101123.16;5025193;28;20245;-78
2021/09/06 00:37:54;;;;;;;21.40;19.20;;;;;;;12.86;83.05;101157.09;5025617;28;20275;-77
2021/09/06 00:40:21;;;;;;;27.13;19.17;;;;;;;12.73;83.44;101151.22;5024385;28;20508;-78
2021/09/06 00:42:48;;;;;;;22.83;17.33;;;;;;;12.78;83.24;101151.13;5022510;28;20232;-78
2021/09/06 00:45:15;;;;;;;20.50;18.30;;;;;;;12.77;83.98;101146.81;5021987;28;21055;-78
2021/09/06 00:47:42;;;;;;;19.03;17.10;;;;;;;12.76;84.02;101111.00;5022344;28;20481;-77
2021/09/06 00:50:12;;;;;;;24.17;20.33;;;;;;;12.78;84.20;101114.47;5022946;28;20205;-77
2021/09/06 00:52:41;;;;;;;26.47;20.20;;;;;;;12.67;84.93;101096.31;5025731;28;20230;-76
2021/09/06 00:55:09;;;;;;;22.43;18.83;;;;;;;12.61;85.09;101088.56;5026838;28;20665;-78
2021/09/06 00:57:36;;;;;;;20.73;18.50;;;;;;;12.63;85.67;101090.25;5030841;28;20729;-76
2021/09/06 01:00:05;;;;;;;17.67;15.73;;;;;;;12.71;85.02;101098.84;5026807;28;20216;-77
2021/09/06 01:02:32;;;;;;;17.17;15.40;;;;;;;12.77;84.65;101113.59;5028366;28;20231;-77
2021/09/06 01:04:58;;;;;;;22.67;16.77;;;;;;;12.80;84.80;101112.69;5027198;28;20624;-76
2021/09/06 01:07:25;;;;;;;24.20;18.97;;;;;;;12.85;84.17;101126.56;5027300;28;20205;-77
2021/09/06 01:09:51;;;;;;;39.10;22.00;;;;;;;12.81;84.95;101107.41;5034641;28;20205;-78
2021/09/06 01:12:18;;;;;;;34.23;20.43;;;;;;;12.79;85.39;101088.25;5031745;28;20560;-78
2021/09/06 01:14:44;;;;;;;36.17;21.40;;;;;;;12.68;86.05;101063.97;5032180;28;20212;-78
2021/09/06 01:17:12;;;;;;;30.93;22.00;;;;;;;12.67;86.03;101062.25;5032265;28;20201;-76
2021/09/06 01:19:38;;;;;;;27.83;20.87;;;;;;;12.62;86.01;101064.94;5029215;28;20628;-76
2021/09/06 01:22:07;;;;;;;25.77;20.10;;;;;;;12.56;86.39;101067.66;5026348;28;20745;-77
2021/09/06 01:24:33;;;;;;;24.80;20.33;;;;;;;12.44;86.80;101053.03;5029731;28;20651;-77
2021/09/06 01:27:01;;;;;;;26.90;21.37;;;;;;;12.47;86.21;101071.31;5026942;28;20663;-76
2021/09/06 01:29:28;;;;;;;23.17;18.63;;;;;;;12.47;85.64;101087.03;5026974;28;20481;-76
2021/09/06 01:31:54;;;;;;;22.83;18.80;;;;;;;12.46;85.77;101094.91;5028561;28;20230;-76
2021/09/06 01:34:21;;;;;;;20.73;18.30;;;;;;;12.28;85.72;101086.44;5027442;28;20218;-76
2021/09/06 01:36:47;;;;;;;23.20;18.87;;;;;;;12.30;85.81;101078.56;5026325;28;20482;-76
2021/09/06 01:39:13;;;;;;;28.13;19.93;;;;;;;12.34;85.70;101084.63;5037132;28;20264;-77
2021/09/06 01:41:40;;;;;;;29.00;20.67;;;;;;;12.26;85.64;101087.38;5043688;28;20483;-77
2021/09/06 01:44:08;;;;;;;31.27;20.77;;;;;;;12.26;85.74;101077.75;5036035;28;20217;-76
2021/09/06 01:46:36;;;;;;;34.73;22.40;;;;;;;12.25;86.44;101068.19;5036762;28;20231;-76
2021/09/06 01:49:03;;;;;;;25.33;20.90;;;;;;;12.27;86.32;101063.78;5026609;28;20655;-76
2021/09/06 01:51:29;;;;;;;34.70;21.13;;;;;;;12.31;86.42;101062.84;5030305;28;20761;-77
2021/09/06 01:53:56;;;;;;;24.13;17.40;;;;;;;12.36;86.03;101068.00;5025910;28;20209;-77
2021/09/06 01:56:23;;;;;;;20.70;17.40;;;;;;;12.38;85.57;101088.94;5029840;28;21362;-77
2021/09/06 01:58:51;;;;;;;27.40;19.63;;;;;;;12.34;85.53;101087.25;5030671;28;20624;-76
2021/09/06 02:01:19;;;;;;;26.53;20.67;;;;;;;12.21;85.54;101081.31;5025915;28;20227;-77
2021/09/06 02:03:45;;;;;;;23.77;19.70;;;;;;;12.10;86.44;101065.81;5024677;28;20250;-76
2021/09/06 02:06:12;;;;;;;22.07;18.50;;;;;;;11.99;86.47;101057.25;5034384;28;20645;-77
2021/09/06 02:08:38;;;;;;;18.90;17.07;;;;;;;12.01;85.96;101071.16;5034178;28;20263;-77
2021/09/06 02:11:05;;;;;;;17.47;15.70;;;;;;;11.91;85.85;101078.28;5028003;28;20232;-77
2021/09/06 02:13:31;;;;;;;17.43;15.67;;;;;;;11.91;85.69;101084.41;5028803;28;20670;-78
2021/09/06 02:15:58;;;;;;;18.20;16.57;;;;;;;11.93;85.50;101079.13;5032191;28;20205;-76
2021/09/06 02:18:26;;;;;;;18.90;17.10;;;;;;;11.92;85.63;101099.19;5025256;28;20217;-76
2021/09/06 02:20:52;;;;;;;19.00;17.10;;;;;;;11.89;85.85;101083.56;5034137;28;20293;-76
2021/09/06 02:23:18;;;;;;;20.23;18.23;;;;;;;11.97;84.96;101111.34;5030813;28;20270;-76
2021/09/06 02:25:45;;;;;;;19.37;17.37;;;;;;;11.92;85.06;101125.34;5026761;28;20225;-76
2021/09/06 02:28:11;;;;;;;23.57;16.57;;;;;;;11.87;85.52;101107.94;5024590;28;20620;-76
2021/09/06 02:30:38;;;;;;;17.53;16.03;;;;;;;11.80;85.97;101091.47;5029977;28;20211;-76
2021/09/06 02:33:04;;;;;;;15.63;14.23;;;;;;;11.78;85.26;101102.88;5024938;28;20252;-76
2021/09/06 02:35:32;;;;;;;17.87;16.17;;;;;;;11.78;84.84;101121.16;5027882;28;20256;-75
2021/09/06 02:37:58;;;;;;;18.80;17.00;;;;;;;11.69;85.56;101109.94;5028844;28;20256;-79
2021/09/06 02:40:25;;;;;;;20.40;18.00;;;;;;;11.80;85.60;101095.84;5033586;28;20223;-77
2021/09/06 02:42:52;;;;;;;22.90;18.30;;;;;;;11.83;85.28;101101.91;5030800;28;20776;-75
2021/09/06 02:45:18;;;;;;;22.33;18.47;;;;;;;11.83;85.05;101115.00;4997872;28;1041923;-77
2021/09/06 02:47:45;;;;;;;20.23;18.10;;;;;;;11.69;85.12;101116.91;5030235;28;20236;-77
2021/09/06 02:50:12;;;;;;;18.17;16.47;;;;;;;11.56;85.22;101107.50;5031638;28;20216;-76
2021/09/06 02:52:39;;;;;;;19.17;17.30;;;;;;;11.59;85.16;101105.69;5037963;28;20228;-77
2021/09/06 02:55:07;;;;;;;16.93;15.43;;;;;;;11.59;85.12;101110.06;5035089;28;20209;-77
2021/09/06 02:57:33;;;;;;;16.23;14.73;;;;;;;11.56;84.50;101123.19;5031313;28;20210;-76
2021/09/06 03:00:00;;;;;;;16.90;15.30;;;;;;;11.45;84.95;101124.16;5031046;28;20213;-77
2021/09/06 03:02:28;;;;;;;15.87;14.47;;;;;;;11.45;84.88;101118.06;5034450;28;20232;-77
2021/09/06 03:04:54;;;;;;;15.23;14.03;;;;;;;11.41;84.81;101108.53;5028051;28;20209;-76
2021/09/06 03:07:21;;;;;;;15.33;14.13;;;;;;;11.27;85.55;101095.63;5027136;28;20231;-78
2021/09/06 03:09:49;;;;;;;15.17;13.87;;;;;;;11.25;86.00;101066.03;5027227;28;20271;-77
2021/09/06 03:12:15;;;;;;;15.67;14.40;;;;;;;11.14;86.79;101050.50;5033380;28;20228;-78
2021/09/06 03:14:41;;;;;;;14.13;12.90;;;;;;;11.25;86.38;101053.81;5031220;28;20209;-77
2021/09/06 03:17:08;;;;;;;13.77;12.67;;;;;;;11.25;86.53;101064.28;5032785;28;21310;-75
2021/09/06 03:19:34;;;;;;;14.70;13.37;;;;;;;11.31;86.52;101055.50;5026679;28;20273;-78
2021/09/06 03:22:00;;;;;;;14.67;13.47;;;;;;;11.42;85.98;101066.69;5023967;28;20274;-77
2021/09/06 03:24:27;;;;;;;14.07;12.90;;;;;;;11.45;86.03;101068.41;5027365;28;20262;-75
2021/09/06 03:26:54;;;;;;;15.63;14.13;;;;;;;11.48;85.15;101103.22;5032459;28;20276;-76
2021/09/06 03:29:21;;;;;;;15.63;14.13;;;;;;;11.39;85.87;101085.03;5030488;28;20219;-78
2021/09/06 03:31:47;;;;;;;15.20;13.90;;;;;;;11.32;85.86;101071.19;5030390;28;20232;-76
2021/09/06 03:34:14;;;;;;;15.83;14.17;;;;;;;11.41;85.59;101074.56;5029493;28;20209;-77
2021/09/06 03:36:40;;;;;;;14.13;13.00;;;;;;;11.36;85.29;101084.19;5032524;28;20287;-79
2021/09/06 03:39:06;;;;;;;15.07;13.87;;;;;;;11.39;85.42;101095.47;5027036;28;20493;-78
2021/09/06 03:41:33;;;;;;;43.97;14.20;;;;;;;11.09;86.02;101079.25;5034226;28;20228;-76
2021/09/06 03:44:01;;;;;;;28.67;13.40;;;;;;;11.13;86.95;101036.53;5034602;28;20220;-77
2021/09/06 03:46:27;;;;;;;14.73;13.53;;;;;;;11.15;87.21;101023.47;5033944;28;20232;-76
2021/09/06 03:48:54;;;;;;;14.80;13.40;;;;;;;11.13;86.97;101033.06;5025777;28;20208;-76
2021/09/06 03:51:20;;;;;;;13.27;12.17;;;;;;;11.24;86.57;101052.09;5030847;28;20262;-76
2021/09/06 03:53:46;;;;;;;16.07;12.07;;;;;;;11.26;85.60;101080.84;5026298;28;20962;-76
2021/09/06 03:56:13;;;;;;;14.37;13.27;;;;;;;11.22;85.68;101077.41;5034145;28;20203;-77
2021/09/06 03:58:39;;;;;;;12.90;11.90;;;;;;;11.34;85.65;101079.00;5031452;28;20271;-76
2021/09/06 04:01:07;;;;;;;11.90;11.00;;;;;;;11.29;85.33;101094.72;5026842;28;20229;-75
2021/09/06 04:03:33;;;;;;;12.73;11.73;;;;;;;11.28;85.19;101094.75;5027524;28;20220;-77
2021/09/06 04:06:00;;;;;;;12.50;11.60;;;;;;;11.27;85.34;101100.84;5024139;28;20238;-76
2021/09/06 04:08:26;;;;;;;11.43;10.43;;;;;;;11.30;84.67;101108.69;5029387;28;20212;-77
2021/09/06 04:10:53;;;;;;;11.20;10.33;;;;;;;11.33;84.30;101129.53;5029187;28;20235;-78
2021/09/06 04:13:20;;;;;;;11.83;10.93;;;;;;;11.37;84.53;101138.22;5037084;28;20212;-77
2021/09/06 04:15:47;;;;;;;11.33;10.40;;;;;;;11.37;84.12;101148.66;5028565;28;20213;-77
2021/09/06 04:18:15;;;;;;;15.43;10.93;;;;;;;11.27;84.56;101146.13;5029761;28;20205;-76
2021/09/06 04:20:42;;;;;;;11.20;10.27;;;;;;;11.19;84.51;101144.50;5031379;28;20220;-78
2021/09/06 04:23:08;;;;;;;10.73;9.93;;;;;;;11.15;85.20;101132.34;5029114;28;20262;-76
2021/09/06 04:25:35;;;;;;;13.27;11.03;;;;;;;11.20;85.48;101117.47;5032169;28;20215;-76
2021/09/06 04:28:01;;;;;;;12.20;11.17;;;;;;;11.27;85.71;101120.00;5028668;28;20228;-76
2021/09/06 04:30:27;;;;;;;12.23;11.23;;;;;;;11.31;85.55;101129.53;5032454;28;20211;-78
2021/09/06 04:32:54;;;;;;;12.67;11.67;;;;;;;11.24;85.71;101132.25;5031322;28;20482;-75
2021/09/06 04:35:21;;;;;;;11.87;10.97;;;;;;;11.30;85.24;101140.91;5028510;28;20243;-77
2021/09/06 04:37:48;;;;;;;11.07;10.27;;;;;;;11.19;85.97;101118.38;5031043;28;20648;-78
2021/09/06 04:40:14;;;;;;;11.20;10.20;;;;;;;11.15;85.77;101132.34;5028347;28;20197;-78
2021/09/06 04:42:41;;;;;;;10.73;9.90;;;;;;;11.18;85.80;101127.06;5031208;28;20288;-75
2021/09/06 04:45:09;;;;;;;12.57;11.30;;;;;;;11.16;85.96;101121.00;5028898;28;20250;-78
2021/09/06 04:47:35;;;;;;;12.47;11.37;;;;;;;11.22;85.85;101124.44;5029873;28;20306;-77
2021/09/06 04:50:02;;;;;;;12.33;11.07;;;;;;;11.21;86.03;101121.84;5028207;28;20269;-75
2021/09/06 04:52:29;;;;;;;11.63;10.47;;;;;;;11.29;85.83;101128.69;5026122;28;20220;-78
2021/09/06 04:54:56;;;;;;;12.43;11.43;;;;;;;11.25;85.72;101132.22;5027314;28;20678;-76
2021/09/06 04:57:22;;;;;;;11.60;10.70;;;;;;;11.24;86.11;101127.91;5025896;28;20228;-76
2021/09/06 04:59:48;;;;;;;11.90;10.87;;;;;;;11.26;86.03;101122.66;5031791;28;20756;-76
2021/09/06 05:02:15;;;;;;;11.53;10.53;;;;;;;11.12;86.48;101109.75;5034617;28;20281;-78
2021/09/06 05:04:41;;;;;;;9.60;8.90;;;;;;;11.16;86.12;101107.94;5030768;28;20647;-78
2021/09/06 05:07:08;;;;;;;10.37;9.57;;;;;;;11.19;85.79;101137.50;5036878;28;20222;-79
2021/09/06 05:09:35;;;;;;;9.73;8.90;;;;;;;11.18;85.39;101140.13;5035409;28;20263;-78
2021/09/06 05:12:02;;;;;;;10.47;9.47;;;;;;;11.13;85.22;101159.34;5031553;28;20646;-80
2021/09/06 05:14:28;;;;;;;8.60;7.90;;;;;;;11.10;84.92;101168.97;5038364;28;20216;-79
2021/09/06 05:16:55;;;;;;;8.20;7.47;;;;;;;11.10;84.56;101182.91;5034146;28;20331;-80
2021/09/06 05:19:21;;;;;;;8.63;7.93;;;;;;;10.97;84.90;101183.88;5029842;28;20279;-80
2021/09/06 05:21:48;;;;;;;9.63;8.83;;;;;;;10.90;85.07;101158.69;5035903;28;20236;-79
2021/09/06 05:24:14;;;;;;;9.93;9.03;;;;;;;10.96;85.23;101165.59;5038098;28;20664;-80
2021/09/06 05:26:42;;;;;;;9.17;8.37;;;;;;;10.98;85.35;101163.84;5036483;28;20235;-79
2021/09/06 05:29:08;;;;;;;9.20;8.40;;;;;;;11.02;84.65;101174.28;5037183;28;20220;-80
2021/09/06 05:31:35;;;;;;;8.93;8.23;;;;;;;11.04;84.84;101182.97;5036056;28;20259;-80
2021/09/06 05:34:01;;;;;;;9.87;8.87;;;;;;;11.05;84.72;101195.13;5034823;28;20684;-79
2021/09/06 05:36:27;;;;;;;11.40;10.40;;;;;;;11.01;85.32;101182.13;5034956;28;20327;-79
2021/09/06 05:38:54;;;;;;;11.27;10.27;;;;;;;10.96;86.05;101157.78;5036410;28;20202;-79
2021/09/06 05:41:20;;;;;;;10.47;9.47;;;;;;;10.97;86.37;101138.63;5036687;28;20237;-80
2021/09/06 05:43:49;;;;;;;10.70;9.80;;;;;;;10.98;86.23;101140.34;5040703;28;20275;-80
2021/09/06 05:46:15;;;;;;;10.70;9.70;;;;;;;11.08;85.88;101144.59;5038714;28;20236;-78
2021/09/06 05:48:42;;;;;;;9.77;8.97;;;;;;;11.12;86.12;101152.41;5039198;28;20227;-80
2021/09/06 05:51:08;;;;;;;10.20;9.30;;;;;;;11.13;86.91;101122.75;5038584;28;20610;-78
2021/09/06 05:53:34;;;;;;;10.30;9.50;;;;;;;11.21;86.18;101153.19;5036317;28;20266;-80
2021/09/06 05:56:01;;;;;;;10.00;9.20;;;;;;;11.23;86.70;101125.28;5037497;28;20207;-79
2021/09/06 05:58:27;;;;;;;10.53;9.63;;;;;;;11.29;86.79;101133.06;5035440;28;20493;-79
2021/09/06 06:00:55;;;;;;;10.97;10.07;;;;;;;11.32;86.78;101131.28;5036125;28;20241;-79
2021/09/06 06:03:21;;;;;;;11.70;10.70;;;;;;;11.36;87.06;101132.13;5038360;28;20214;-78
2021/09/06 06:05:48;;;;;;;11.40;10.40;;;;;;;11.39;87.42;101115.53;5031345;28;20673;-78
2021/09/06 06:08:14;;;;;;;10.93;10.03;;;;;;;11.41;87.01;101130.31;5033205;28;20223;-78
2021/09/06 06:10:41;;;;;;;9.87;9.03;;;;;;;11.41;86.57;101140.75;5034108;28;20261;-78
2021/09/06 06:13:07;;;;;;;9.60;8.80;;;;;;;11.41;86.55;101146.00;5032574;28;20629;-76
2021/09/06 06:15:34;;;;;;;9.23;8.43;;;;;;;11.38;86.83;101142.53;5034120;28;20738;-77
2021/09/06 06:18:02;;;;;;;9.60;8.80;;;;;;;11.37;86.91;101136.44;5034986;28;20210;-77
2021/09/06 06:20:28;;;;;;;9.03;8.23;;;;;;;11.36;86.99;101126.91;5035531;28;20216;-77
2021/09/06 06:22:55;;;;;;;9.50;8.70;;;;;;;11.39;87.69;101116.38;5032916;28;20238;-77
2021/09/06 06:25:22;;;;;;;9.23;8.33;;;;;;;11.45;88.00;101108.47;5038375;28;20223;-78
2021/09/06 06:27:48;;;;;;;8.60;7.90;;;;;;;11.53;87.74;101111.88;5038210;28;20297;-79
2021/09/06 06:30:15;;;;;;;9.80;8.33;;;;;;;11.59;88.69;101091.75;5038851;28;20258;-77
2021/09/06 06:32:41;;;;;;;8.77;8.07;;;;;;;11.64;88.59;101095.19;5035045;28;20263;-79
2021/09/06 06:35:10;;;;;;;8.90;8.20;;;;;;;11.70;88.98;101071.56;5032154;28;20286;-78
2021/09/06 06:37:36;;;;;;;8.73;8.03;;;;;;;11.76;88.64;101089.81;5036989;28;20205;-80
2021/09/06 06:40:03;;;;;;;8.63;7.93;;;;;;;11.86;87.55;101124.53;5034023;28;20201;-77
2021/09/06 06:42:30;;;;;;;9.37;8.57;;;;;;;11.89;87.88;101128.03;5034511;28;20719;-77
2021/09/06 06:44:56;;;;;;;8.77;7.97;;;;;;;11.94;88.58;101108.78;5035650;28;20303;-77
2021/09/06 06:47:23;;;;;;;8.33;7.63;;;;;;;11.99;88.03;101123.53;5037916;28;20236;-78
2021/09/06 06:49:49;;;;;;;8.07;7.47;;;;;;;12.01;88.13;101133.97;5033129;28;20205;-77
2021/09/06 06:52:17;;;;;;;8.87;8.10;;;;;;;12.02;87.85;101126.09;5037957;28;20247;-77
2021/09/06 06:54:45;;;;;;;8.53;7.83;;;;;;;12.08;88.40;101130.38;5034450;28;20259;-77
2021/09/06 06:57:11;;;;;;;9.47;8.67;;;;;;;12.11;89.03;101105.03;5036066;28;20546;-77
2021/09/06 06:59:38;;;;;;;8.77;8.07;;;;;;;12.16;88.01;101112.81;5031151;28;20220;-77
2021/09/06 07:02:05;;;;;;;8.90;8.10;;;;;;;12.20;88.27;101119.72;5039300;28;21009;-78
2021/09/06 07:04:31;;;;;;;8.10;7.43;;;;;;;12.28;88.40;101111.78;5037378;28;20216;-77
2021/09/06 07:06:57;;;;;;;10.13;9.23;;;;;;;12.27;88.69;101116.16;5037892;28;20628;-77
2021/09/06 07:09:25;;;;;;;10.87;9.93;;;;;;;12.33;89.35;101104.72;5035672;28;20209;-80
2021/09/06 07:11:52;;;;;;;9.77;8.60;;;;;;;12.40;89.65;101093.25;5033190;28;20284;-76
2021/09/06 07:14:18;;;;;;;32.87;8.60;;;;;;;12.47;89.54;101101.88;5036117;28;20278;-78
2021/09/06 07:16:44;;;;;;;46.43;10.20;;;;;;;12.42;89.46;101094.09;5034998;28;20981;-78
2021/09/06 07:19:11;;;;;;;9.73;8.77;;;;;;;12.34;90.27;101075.03;5036764;28;20632;-77
2021/09/06 07:21:37;;;;;;;10.00;9.03;;;;;;;12.45;90.46;101057.38;5032930;28;20231;-79
2021/09/06 07:24:04;;;;;;;10.03;8.53;;;;;;;12.54;90.68;101050.25;5030561;28;20209;-78
2021/09/06 07:26:32;;;;;;;9.70;8.90;;;;;;;12.52;91.69;101045.03;5034849;28;20216;-76
2021/09/06 07:28:59;;;;;;;9.80;8.80;;;;;;;12.62;91.11;101048.38;5033359;28;20236;-74
2021/09/06 07:31:26;;;;;;;47.87;9.30;;;;;;;12.02;92.47;101041.50;5032817;28;20733;-77
2021/09/06 07:33:52;;;;;;;11.50;9.87;;;;;;;12.01;94.14;100980.47;5035634;28;20213;-77
2021/09/06 07:36:18;;;;;;;23.90;9.80;;;;;;;12.17;94.65;100957.53;5033485;28;20721;-77
2021/09/06 07:38:45;;;;;;;23.20;9.57;;;;;;;12.34;94.87;100956.34;5031442;28;20216;-79
2021/09/06 07:41:11;;;;;;;9.83;8.93;;;;;;;12.50;94.12;100974.38;5029695;28;20217;-77
2021/09/06 07:43:41;;;;;;;12.23;8.70;;;;;;;12.73;93.43;101014.16;5031066;28;20247;-76
2021/09/06 07:46:07;;;;;;;9.07;8.27;;;;;;;12.91;92.48;101042.59;5034170;28;20265;-77
2021/09/06 07:48:34;;;;;;;8.27;7.63;;;;;;;13.04;91.30;101070.31;5032659;28;20225;-77
2021/09/06 07:51:00;;;;;;;8.27;7.70;;;;;;;13.15;90.74;101103.31;5034611;28;20228;-79
2021/09/06 07:53:26;;;;;;;9.13;8.43;;;;;;;13.19;90.63;101115.47;5030090;28;20569;-77
2021/09/06 07:55:53;;;;;;;9.30;8.50;;;;;;;13.29;89.75;101130.13;5037949;28;20271;-78
2021/09/06 07:58:19;;;;;;;9.90;9.10;;;;;;;13.39;89.70;101144.81;5031900;28;20231;-78
2021/09/06 08:00:47;;;;;;;9.63;8.83;;;;;;;13.45;88.98;101159.59;5034540;28;20213;-77
2021/09/06 08:03:14;;;;;;;10.07;9.27;;;;;;;13.53;88.79;101177.81;5035137;28;20303;-78
2021/09/06 08:05:40;;;;;;;9.40;8.57;;;;;;;13.63;88.86;101174.09;5032321;28;20733;-78
2021/09/06 08:08:07;;;;;;;9.10;8.40;;;;;;;13.76;88.78;101174.72;5035117;28;20227;-77
2021/09/06 08:10:33;;;;;;;9.17;8.40;;;;;;;13.85;87.96;101193.75;5035628;28;20660;-78
2021/09/06 08:13:00;;;;;;;9.97;9.10;;;;;;;13.90;88.23;101189.28;5034526;28;20283;-79
2021/09/06 08:15:28;;;;;;;10.40;9.50;;;;;;;14.00;88.11;101215.34;5036320;28;20621;-78
2021/09/06 08:17:56;;;;;;;13.07;12.00;;;;;;;14.03;89.35;101189.91;5034440;28;20208;-77
2021/09/06 08:20:23;;;;;;;12.77;11.70;;;;;;;14.13;89.73;101155.56;5037586;28;20213;-79
2021/09/06 08:22:50;;;;;;;11.90;10.97;;;;;;;14.25;89.48;101171.91;5031691;28;20905;-78
2021/09/06 08:25:17;;;;;;;12.77;11.77;;;;;;;14.29;88.70;101204.19;5036952;28;20205;-77
2021/09/06 08:27:44;;;;;;;13.20;12.00;;;;;;;14.40;87.95;101225.00;5035949;28;20233;-77
2021/09/06 08:30:13;;;;;;;13.67;12.50;;;;;;;14.49;87.55;101243.19;5036748;28;20262;-78
2021/09/06 08:32:40;;;;;;;12.97;11.83;;;;;;;14.59;86.96;101257.88;5032908;28;20284;-77
2021/09/06 08:35:09;;;;;;;14.50;13.27;;;;;;;14.47;88.44;101223.97;5032789;28;20204;-76
2021/09/06 08:37:35;;;;;;;15.00;13.50;;;;;;;14.63;87.26;101245.53;5031757;28;20701;-78
2021/09/06 08:40:02;;;;;;;15.97;14.37;;;;;;;14.61;87.46;101248.19;5032135;28;20256;-78
2021/09/06 08:42:28;;;;;;;16.10;14.70;;;;;;;14.74;86.74;101263.69;5033192;28;20279;-76
2021/09/06 08:44:55;;;;;;;15.23;13.93;;;;;;;14.86;86.67;101268.63;5024842;28;20299;-77
2021/09/06 08:47:21;;;;;;;15.13;13.83;;;;;;;14.97;86.15;101284.19;5027693;28;20216;-78
2021/09/06 08:49:49;;;;;;;14.70;13.40;;;;;;;15.02;86.52;101283.16;5034576;28;20217;-77
2021/09/06 08:52:16;;;;;;;14.63;13.40;;;;;;;14.99;86.15;101288.50;5032400;28;20716;-77
2021/09/06 08:54:43;;;;;;;14.80;13.37;;;;;;;14.93;86.23;101282.53;5026806;28;20263;-76
2021/09/06 08:57:09;;;;;;;16.70;15.20;;;;;;;14.88;86.33;101274.72;5031263;28;20242;-78
2021/09/06 08:59:39;;;;;;;17.13;15.40;;;;;;;14.77;87.50;101253.09;5031922;28;20204;-77
2021/09/06 09:02:05;;;;;;;16.57;15.10;;;;;;;14.82;87.98;101240.69;5030462;28;20663;-76
2021/09/06 09:04:31;;;;;;;16.83;15.23;;;;;;;14.84;88.65;101223.13;5030580;28;20205;-77
2021/09/06 09:07:00;;;;;;;17.30;15.90;;;;;;;14.89;89.21;101194.97;5033762;28;20213;-77
2021/09/06 09:09:29;;;;;;;17.37;15.87;;;;;;;14.84;90.67;101157.41;5028521;28;20234;-78
2021/09/06 09:12:07;;;;;;;18.07;16.27;;;;;;;14.92;90.45;101162.47;5031241;28;20251;-78
2021/09/06 09:14:35;;;;;;;20.70;18.90;;;;;;;15.05;90.05;101170.03;5035061;28;20447;-78
2021/09/06 09:17:02;;;;;;;18.20;16.50;;;;;;;15.06;90.32;101170.88;5032249;28;20240;-77
2021/09/06 09:19:28;;;;;;;17.63;16.10;;;;;;;15.18;89.48;101198.63;5035894;28;20264;-77
2021/09/06 09:21:55;;;;;;;17.70;16.23;;;;;;;15.18;89.80;101199.50;5036699;28;20226;-77
2021/09/06 09:24:23;;;;;;;18.40;16.60;;;;;;;15.11;90.92;101179.53;5035687;28;20214;-78
2021/09/06 09:26:56;;;;;;;21.10;19.03;;;;;;;14.99;91.58;101143.88;5035938;28;20264;-75
2021/09/06 09:29:22;;;;;;;20.10;18.30;;;;;;;15.12;90.98;101152.31;5032359;28;20707;-77
2021/09/06 09:31:49;;;;;;;20.93;19.13;;;;;;;15.15;90.26;101177.69;5035086;28;20644;-76
2021/09/06 09:34:16;;;;;;;21.90;19.80;;;;;;;15.26;89.80;101202.81;5033161;28;20232;-77
2021/09/06 09:36:42;;;;;;;21.20;19.10;;;;;;;15.26;90.28;101194.03;5037933;28;20206;-77
2021/09/06 09:39:11;;;;;;;21.60;19.63;;;;;;;15.34;90.69;101194.72;5032523;28;20628;-77
2021/09/06 09:41:38;;;;;;;28.47;22.57;;;;;;;15.37;91.03;101178.81;5034761;28;20232;-76
2021/09/06 09:44:08;;;;;;;25.07;20.87;;;;;;;15.34;90.55;101186.81;5033463;28;20276;-77
2021/09/06 09:46:35;;;;;;;26.17;20.87;;;;;;;15.47;89.51;101218.91;5032431;28;20218;-78
2021/09/06 09:49:09;;;;;;;23.73;21.23;;;;;;;15.59;89.86;101220.34;5031627;28;20380;-78
2021/09/06 09:51:36;;;;;;;23.57;20.73;;;;;;;15.66;89.89;101225.41;5027778;28;20295;-76
2021/09/06 09:54:03;;;;;;;23.67;21.37;;;;;;;15.68;90.75;101196.41;5029864;28;20256;-77
2021/09/06 09:56:31;;;;;;;22.43;20.20;;;;;;;15.83;90.37;101200.41;5038233;28;20650;-77
2021/09/06 09:58:58;;;;;;;31.93;22.43;;;;;;;15.96;90.41;101200.94;5034405;28;20202;-76
2021/09/06 10:01:28;;;;;;;24.57;22.13;;;;;;;16.03;90.44;101203.31;5033027;28;20234;-77
2021/09/06 10:03:57;;;;;;;24.67;22.10;;;;;;;16.21;89.27;101230.03;5039430;28;20209;-76
2021/09/06 10:06:25;;;;;;;26.77;22.47;;;;;;;16.29;88.76;101254.38;5034640;28;20465;-76
2021/09/06 10:08:51;;;;;;;26.47;22.27;;;;;;;16.43;88.82;101254.84;5036140;28;20302;-76
2021/09/06 10:11:18;;;;;;;30.80;23.30;;;;;;;16.55;86.55;101314.22;5036367;28;20338;-77
2021/09/06 10:13:44;;;;;;;30.83;22.93;;;;;;;16.75;86.01;101349.66;5032723;28;20284;-76
2021/09/06 10:16:11;;;;;;;24.80;20.07;;;;;;;17.01;84.29;101401.66;5033418;28;20272;-78
2021/09/06 10:18:40;;;;;;;25.43;20.23;;;;;;;17.19;82.73;101463.56;5036779;28;20597;-77
2021/09/06 10:21:14;;;;;;;24.63;22.00;;;;;;;17.41;81.83;101479.59;5032448;28;20237;-77
2021/09/06 10:23:44;;;;;;;22.63;19.97;;;;;;;17.53;79.80;101550.50;5035805;28;20214;-77
2021/09/06 10:26:11;;;;;;;22.20;19.53;;;;;;;17.66;79.15;101562.44;5038312;28;20209;-76
2021/09/06 10:28:38;;;;;;;22.40;20.10;;;;;;;17.84;78.70;101566.31;5029210;28;20280;-77
2021/09/06 10:31:04;;;;;;;21.97;19.77;;;;;;;17.99;77.38;101615.13;5035274;28;20991;-77
2021/09/06 10:33:33;;;;;;;25.17;19.07;;;;;;;18.12;74.22;101728.41;5037123;28;20375;-78
2021/09/06 10:36:09;;;;;;;20.40;18.47;;;;;;;18.35;74.48;101717.97;5032637;28;20206;-76
2021/09/06 10:38:41;;;;;;;19.83;17.73;;;;;;;18.49;73.71;101735.19;5034408;28;20205;-77
2021/09/06 10:41:13;;;;;;;18.50;16.70;;;;;;;18.73;73.38;101752.06;5029605;28;20911;-78
2021/09/06 10:43:45;;;;;;;19.20;17.23;;;;;;;18.76;68.41;101913.34;5037675;28;20421;-77
2021/09/06 10:46:12;;;;;;;18.03;16.47;;;;;;;18.52;68.99;101934.31;5037523;28;20208;-78
2021/09/06 10:48:39;;;;;;;19.20;17.17;;;;;;;18.58;71.35;101822.19;5034900;28;20457;-77
2021/09/06 10:51:05;;;;;;;20.17;18.23;;;;;;;18.87;71.92;101779.00;5028967;28;20228;-78
2021/09/06 10:53:34;;;;;;;19.63;17.63;;;;;;;18.99;70.17;101844.75;5030700;28;20295;-78
2021/09/06 10:56:00;;;;;;;19.37;17.53;;;;;;;19.23;70.29;101836.94;5039539;28;20201;-78
2021/09/06 10:58:28;;;;;;;20.27;18.10;;;;;;;19.30;70.30;101833.16;5034077;28;20476;-78
2021/09/06 11:00:57;;;;;;;20.97;18.97;;;;;;;19.12;68.13;101878.78;5033706;28;20741;-77
2021/09/06 11:03:28;;;;;;;21.50;19.13;;;;;;;19.23;69.23;101860.78;5032208;28;20252;-78
2021/09/06 11:05:55;;;;;;;19.70;17.57;;;;;;;19.35;69.64;101855.06;5038752;28;20204;-77
2021/09/06 11:08:27;;;;;;;20.83;18.87;;;;;;;19.41;69.72;101838.13;5035250;28;20211;-78
2021/09/06 11:10:56;;;;;;;21.77;19.87;;;;;;;19.51;69.33;101838.69;5030604;28;20256;-77